Tylersport, PA (18971)

4:13 PM EDT on May 30, 2015 (GMT -0400)
Miller's Run | | Change Station
CLOSE
Current Station
Personal Weather Station
Location: Quakertown, PA
Elevation: 535 ft
Nearby Weather Stations

Elev 535 ft 40.43 °N, 75.38 °W | Updated 1 second ago

Scattered Clouds
Scattered Clouds
84.4 °F
Feels Like 86 °F
N
0.9
Wind Variable Wind from SW
Gusts 2.5 mph

Today
High -- | Low -- °F
--% Chance of Precip.
Yesterday
High -- | Low -- °F
Precip. -- in
5:34 AM 8:23 PM
Waxing Gibbous, 92% visible
Pressure 30.09 in
Visibility 10.0 miles
Clouds Few 4000 ft
Scattered Clouds 4800 ft
Heat Index 86 °F
Dew Point 64 °F
Humidity 51%
Rainfall 0.00 in
Snow Depth Not available.
UV 5.0 out of 12
Pollen 8.20 out of 12
Air Quality Not available.
Flu Activity Sporadic
METAR KUKT 301950Z AUTO 20009G16KT 10SM FEW040 SCT048 30/19 A3009 RMK AO1

More Conditions Fewer Conditions

Pressure 30.09 in
Visibility 10.0 miles
Clouds Few 4000 ft
Scattered Clouds 4800 ft
Heat Index 86 °F
Dew Point 64 °F
Humidity 51%
Rainfall 0.00 in
Snow Depth Not available.
UV 5.0 out of 12
Pollen 8.20 out of 12
Air Quality Not available.
Flu Activity Sporadic
METAR KUKT 301950Z AUTO 20009G16KT 10SM FEW040 SCT048 30/19 A3009 RMK AO1

More Conditions Fewer Conditions

10-Day Weather Forecast

Almanac

Astronomy

May. 30, 2015 Rise Set
Actual Time
Civil Twilight
Nautical Twilight
Astronomical Twilight
Moon
Length of Visible Light
Length of Day
Tomorrow will be .
, % of the Moon is Illuminated

Today's Extremes

State Highs State Lows

Community

WunderPhotos

Upload Photos

1,825,578 photos uploaded!

WunderBlogs® & News

Nearby

Air Quality

  Air Quality AQ Index Pollutant
Not available.

Snow Depth

Station Depth Elevation

Earthquake Activity

City Distance Mag. Time & Date
Minimum magnitude displayed is 2.5.

Coastal Water Temperatures

Place Temperature

Stations

Nearby Weather Stations

Station Location Temp. Windchill Dew Point Humidity Wind Precip. Elev Updated Type